createdAt,value
2022-11-24T00:01:19.606Z,11.90
2022-11-24T00:03:55.022Z,12.00
2022-11-24T00:06:21.905Z,11.90
2022-11-24T00:08:49.073Z,12.00
2022-11-24T00:11:18.820Z,11.90
2022-11-24T00:13:46.683Z,11.90
2022-11-24T00:16:19.327Z,11.90
2022-11-24T00:18:47.870Z,11.90
2022-11-24T00:21:16.361Z,11.90
2022-11-24T00:23:44.032Z,11.80
2022-11-24T00:26:16.416Z,11.80
2022-11-24T00:28:45.207Z,11.80
2022-11-24T00:31:20.874Z,11.80
2022-11-24T00:33:49.392Z,11.70
2022-11-24T00:36:17.407Z,11.70
2022-11-24T00:38:45.303Z,11.70
2022-11-24T00:41:12.356Z,11.70
2022-11-24T00:43:39.353Z,11.70
2022-11-24T00:46:06.418Z,11.70
2022-11-24T00:48:33.349Z,11.70
2022-11-24T00:51:04.309Z,11.70
2022-11-24T00:53:31.663Z,11.70
2022-11-24T00:55:58.577Z,11.60
2022-11-24T00:58:25.711Z,11.60
2022-11-24T01:00:53.449Z,11.60
2022-11-24T01:03:21.173Z,11.50
2022-11-24T01:05:48.577Z,11.50
2022-11-24T01:08:15.473Z,11.50
2022-11-24T01:10:42.358Z,11.40
2022-11-24T01:13:09.189Z,11.40
2022-11-24T01:15:36.859Z,11.40
2022-11-24T01:18:04.565Z,11.30
2022-11-24T01:20:32.326Z,11.30
2022-11-24T01:22:59.176Z,11.30
2022-11-24T01:25:26.086Z,11.30
2022-11-24T01:27:53.012Z,11.30
2022-11-24T01:30:19.975Z,11.30
2022-11-24T01:32:46.793Z,11.30
2022-11-24T01:35:13.674Z,11.40
2022-11-24T01:37:40.478Z,11.40
2022-11-24T01:40:08.191Z,11.40
2022-11-24T01:42:52.030Z,11.40
2022-11-24T01:45:31.290Z,11.50
2022-11-24T01:47:59.105Z,11.50
2022-11-24T01:50:26.255Z,11.50
2022-11-24T01:52:55.276Z,11.60
2022-11-24T01:55:27.274Z,11.60
2022-11-24T01:57:59.178Z,11.60
2022-11-24T02:00:26.095Z,11.60
2022-11-24T02:02:53.668Z,11.70
2022-11-24T02:05:20.467Z,11.70
2022-11-24T02:07:48.521Z,11.70
2022-11-24T02:10:16.567Z,11.70
2022-11-24T02:12:48.995Z,11.70
2022-11-24T02:15:16.714Z,11.70
2022-11-24T02:17:44.016Z,11.70
2022-11-24T02:20:12.229Z,11.80
2022-11-24T02:22:42.055Z,11.80
2022-11-24T02:25:44.885Z,11.80
2022-11-24T02:28:16.299Z,11.80
2022-11-24T02:30:43.529Z,11.80
2022-11-24T02:33:11.708Z,11.80
2022-11-24T02:35:39.087Z,11.80
2022-11-24T02:38:06.216Z,11.90
2022-11-24T02:40:33.370Z,11.80
2022-11-24T02:43:12.406Z,11.90
2022-11-24T02:45:39.312Z,11.90
2022-11-24T02:48:06.674Z,11.90
2022-11-24T02:50:33.720Z,11.90
2022-11-24T02:53:00.594Z,12.00
2022-11-24T02:55:27.401Z,12.00
2022-11-24T02:57:54.220Z,12.00
2022-11-24T03:00:21.083Z,12.00
2022-11-24T03:02:47.997Z,12.00
2022-11-24T03:05:15.050Z,12.00
2022-11-24T03:07:42.044Z,12.10
2022-11-24T03:10:09.290Z,12.00
2022-11-24T03:12:36.261Z,12.10
2022-11-24T03:15:03.720Z,12.10
2022-11-24T03:17:30.592Z,12.10
2022-11-24T03:20:01.538Z,12.10
2022-11-24T03:22:31.428Z,12.00
2022-11-24T03:24:58.599Z,12.00
2022-11-24T03:27:25.444Z,12.00
2022-11-24T03:29:52.339Z,12.00
2022-11-24T03:32:19.159Z,12.00
2022-11-24T03:34:45.988Z,12.00
2022-11-24T03:37:12.853Z,12.10
2022-11-24T03:39:39.829Z,12.10
2022-11-24T03:42:06.725Z,12.00
2022-11-24T03:44:33.805Z,12.00
2022-11-24T03:47:00.840Z,12.00
2022-11-24T03:49:27.669Z,12.00
2022-11-24T03:51:54.499Z,12.00
2022-11-24T03:54:21.949Z,12.00
2022-11-24T03:56:48.897Z,12.00
2022-11-24T03:59:15.737Z,12.00
2022-11-24T04:01:42.790Z,12.00
2022-11-24T04:04:11.748Z,12.00
2022-11-24T04:06:39.071Z,12.00
2022-11-24T04:09:06.459Z,11.90
2022-11-24T04:11:51.890Z,12.00
2022-11-24T04:14:19.427Z,12.00
2022-11-24T04:16:46.397Z,12.00
2022-11-24T04:19:13.264Z,12.00
2022-11-24T04:21:40.100Z,12.00
2022-11-24T04:24:07.008Z,12.00
2022-11-24T04:26:33.825Z,12.00
2022-11-24T04:29:00.675Z,12.00
2022-11-24T04:31:27.541Z,12.00
2022-11-24T04:33:54.498Z,12.00
2022-11-24T04:36:21.399Z,12.00
2022-11-24T04:39:20.020Z,12.00
2022-11-24T04:41:35.151Z,12.00
2022-11-24T04:44:02.027Z,11.90
2022-11-24T04:46:30.988Z,11.90
2022-11-24T04:48:57.915Z,11.90
2022-11-24T04:51:24.689Z,11.90
2022-11-24T04:53:51.630Z,11.90
2022-11-24T04:56:18.486Z,11.80
2022-11-24T04:58:48.894Z,11.80
2022-11-24T05:01:15.846Z,11.80
2022-11-24T05:03:42.669Z,11.80
2022-11-24T05:06:09.553Z,11.80
2022-11-24T05:08:36.466Z,11.80
2022-11-24T05:11:07.095Z,11.80
2022-11-24T05:13:34.235Z,11.80
2022-11-24T05:16:01.751Z,11.70
2022-11-24T05:18:28.947Z,11.80
2022-11-24T05:20:56.054Z,11.80
2022-11-24T05:23:22.948Z,11.80
2022-11-24T05:25:49.898Z,11.70
2022-11-24T05:28:17.661Z,11.80
2022-11-24T05:30:45.431Z,11.70
2022-11-24T05:33:18.900Z,11.70
2022-11-24T05:35:46.546Z,11.70
2022-11-24T05:38:13.391Z,11.70
2022-11-24T05:40:40.426Z,11.70
2022-11-24T05:43:14.412Z,11.60
2022-11-24T05:45:41.692Z,11.60
2022-11-24T05:48:14.410Z,11.60
2022-11-24T05:50:41.686Z,11.60
2022-11-24T05:53:11.877Z,11.60
2022-11-24T05:55:40.278Z,11.60
2022-11-24T05:58:08.665Z,11.60
2022-11-24T06:00:36.247Z,11.60
2022-11-24T06:03:03.372Z,11.60
2022-11-24T06:05:30.552Z,11.60
2022-11-24T06:07:59.535Z,11.60
2022-11-24T06:10:26.780Z,11.60
2022-11-24T06:12:53.789Z,11.60
2022-11-24T06:15:20.717Z,11.60
2022-11-24T06:17:55.704Z,11.60
2022-11-24T06:20:27.058Z,11.60
2022-11-24T06:23:00.555Z,11.60
2022-11-24T06:25:28.532Z,11.60
2022-11-24T06:27:55.657Z,11.50
2022-11-24T06:30:22.492Z,11.60
2022-11-24T06:32:50.115Z,11.50
2022-11-24T06:35:17.641Z,11.50
2022-11-24T06:37:45.740Z,11.50
2022-11-24T06:40:12.893Z,11.50
2022-11-24T06:42:39.779Z,11.50
2022-11-24T06:45:09.290Z,11.50
2022-11-24T06:47:36.884Z,11.50
2022-11-24T06:50:04.434Z,11.50
2022-11-24T06:52:31.470Z,11.50
2022-11-24T06:54:58.401Z,11.50
2022-11-24T06:57:25.268Z,11.50
2022-11-24T06:59:52.136Z,11.50
2022-11-24T07:02:19.058Z,11.50
2022-11-24T07:04:45.923Z,11.60
2022-11-24T07:07:12.964Z,11.60
2022-11-24T07:09:39.904Z,11.50
2022-11-24T07:12:07.250Z,11.50
2022-11-24T07:14:34.300Z,11.50
2022-11-24T07:17:02.664Z,11.50
2022-11-24T07:19:29.622Z,11.50
2022-11-24T07:21:56.830Z,11.60
2022-11-24T07:24:23.699Z,11.60
2022-11-24T07:26:50.676Z,11.60
2022-11-24T07:29:17.564Z,11.60
2022-11-24T07:31:45.983Z,11.70
2022-11-24T07:34:14.743Z,11.70
2022-11-24T07:36:42.715Z,11.70
2022-11-24T07:39:09.748Z,11.70
2022-11-24T07:41:36.657Z,11.70
2022-11-24T07:44:03.689Z,11.80
2022-11-24T07:46:30.627Z,11.80
2022-11-24T07:48:57.609Z,11.80
2022-11-24T07:51:24.584Z,11.80
2022-11-24T07:53:51.460Z,11.90
2022-11-24T07:56:18.291Z,11.90
2022-11-24T07:58:49.734Z,11.90
2022-11-24T08:01:20.083Z,12.00
2022-11-24T08:03:47.218Z,12.00
2022-11-24T08:06:36.243Z,12.00
2022-11-24T08:09:01.346Z,12.10
2022-11-24T08:11:31.340Z,12.10
2022-11-24T08:13:58.340Z,12.10
2022-11-24T08:16:25.219Z,12.00
2022-11-24T08:18:54.088Z,12.00
2022-11-24T08:21:23.216Z,12.00
2022-11-24T08:23:53.731Z,12.00
2022-11-24T08:26:20.594Z,12.00
2022-11-24T08:28:47.798Z,12.00
2022-11-24T08:31:18.766Z,12.00
2022-11-24T08:33:46.106Z,12.00
2022-11-24T08:36:16.322Z,12.00
2022-11-24T08:38:44.764Z,12.10
2022-11-24T08:41:14.512Z,12.10
2022-11-24T08:43:41.954Z,12.10
2022-11-24T08:46:13.177Z,12.20
2022-11-24T08:48:40.575Z,12.40
2022-11-24T08:51:10.393Z,12.50
2022-11-24T08:53:37.469Z,12.70
2022-11-24T08:56:05.319Z,12.80
2022-11-24T08:58:32.929Z,12.90
2022-11-24T09:01:14.010Z,13.00
2022-11-24T09:03:51.275Z,13.00
2022-11-24T09:06:22.909Z,13.10
2022-11-24T09:08:50.104Z,13.20
2022-11-24T09:11:17.629Z,13.30
2022-11-24T09:13:45.061Z,13.40
2022-11-24T09:16:21.210Z,13.50
2022-11-24T09:18:48.689Z,13.60
2022-11-24T09:21:20.159Z,13.70
2022-11-24T09:23:48.970Z,13.80
2022-11-24T09:26:18.545Z,13.90
2022-11-24T09:28:45.921Z,14.00
2022-11-24T09:31:15.004Z,14.10
2022-11-24T09:33:42.569Z,14.20
2022-11-24T09:36:10.067Z,14.30
2022-11-24T09:38:37.306Z,14.40
2022-11-24T09:41:27.428Z,14.40
2022-11-24T09:44:23.339Z,14.50
2022-11-24T09:47:16.261Z,14.60
2022-11-24T09:49:51.685Z,14.60
2022-11-24T09:52:38.878Z,14.60
2022-11-24T09:55:32.787Z,14.60
2022-11-24T09:58:19.653Z,14.80
2022-11-24T10:00:49.780Z,14.80
2022-11-24T10:03:34.062Z,14.90
2022-11-24T10:06:09.288Z,14.90
2022-11-24T10:08:54.353Z,14.80
2022-11-24T10:11:46.785Z,14.80
2022-11-24T10:14:46.754Z,14.70
2022-11-24T10:17:49.060Z,14.70
2022-11-24T10:20:38.928Z,14.60
2022-11-24T10:23:39.738Z,14.60
2022-11-24T10:26:16.245Z,14.50
2022-11-24T10:28:55.251Z,14.50
2022-11-24T10:31:35.611Z,14.50
2022-11-24T10:34:20.597Z,14.40
2022-11-24T10:36:57.527Z,14.30
2022-11-24T10:39:35.998Z,14.30
2022-11-24T10:42:37.117Z,14.20
2022-11-24T10:45:11.222Z,14.20
2022-11-24T10:47:39.204Z,14.10
2022-11-24T10:50:15.112Z,14.10
2022-11-24T10:52:46.766Z,14.10
2022-11-24T10:55:13.877Z,14.10
2022-11-24T10:57:41.222Z,14.10
2022-11-24T11:00:20.306Z,14.10
2022-11-24T11:02:49.290Z,14.10
2022-11-24T11:05:41.864Z,14.10
2022-11-24T11:08:14.871Z,14.10
2022-11-24T11:10:43.262Z,14.10
2022-11-24T11:13:30.225Z,14.20
2022-11-24T11:15:58.557Z,14.20
2022-11-24T11:18:32.011Z,14.10
2022-11-24T11:21:02.131Z,14.20
2022-11-24T11:23:35.133Z,14.20
2022-11-24T11:26:38.662Z,14.20
2022-11-24T11:34:49.123Z,14.30
2022-11-24T11:37:18.106Z,14.40
2022-11-24T11:39:50.950Z,14.40
2022-11-24T11:45:27.341Z,14.40
2022-11-24T11:48:03.240Z,14.50
2022-11-24T11:51:21.617Z,14.40
2022-11-24T11:53:52.202Z,14.50
2022-11-24T11:56:50.341Z,14.40
2022-11-24T11:59:55.206Z,14.50
2022-11-24T12:02:52.917Z,14.50
2022-11-24T12:05:39.012Z,14.50
2022-11-24T12:08:23.899Z,14.50
2022-11-24T12:11:05.028Z,14.50
2022-11-24T12:13:54.636Z,14.50
2022-11-24T12:16:29.748Z,14.50
2022-11-24T12:19:36.136Z,14.50
2022-11-24T12:22:50.462Z,14.50
2022-11-24T12:25:37.352Z,14.50
2022-11-24T12:28:17.592Z,14.60
2022-11-24T12:31:17.341Z,14.70
2022-11-24T12:34:16.608Z,14.60
2022-11-24T12:37:00.428Z,14.60
2022-11-24T12:39:49.620Z,14.60
2022-11-24T12:42:53.295Z,14.70
2022-11-24T12:45:34.719Z,14.60
2022-11-24T12:48:33.551Z,14.60
2022-11-24T12:51:01.454Z,14.60
2022-11-24T12:53:34.008Z,14.60
2022-11-24T12:56:09.685Z,14.60
2022-11-24T12:59:00.163Z,14.60
2022-11-24T13:02:04.169Z,14.60
2022-11-24T13:04:56.811Z,14.70
2022-11-24T13:07:42.703Z,14.70
2022-11-24T13:10:40.492Z,14.70
2022-11-24T13:13:13.271Z,14.70
2022-11-24T13:18:43.230Z,14.80
2022-11-24T13:21:32.308Z,14.80
2022-11-24T13:24:01.896Z,14.80
2022-11-24T13:26:31.772Z,14.80
2022-11-24T13:29:13.462Z,14.80
2022-11-24T13:31:51.618Z,14.80
2022-11-24T13:34:40.511Z,14.80
2022-11-24T13:37:31.485Z,14.80
2022-11-24T13:40:22.548Z,14.80
2022-11-24T13:43:01.288Z,14.70
2022-11-24T13:45:41.204Z,14.70
2022-11-24T13:48:28.504Z,14.70
2022-11-24T13:50:58.099Z,14.70
2022-11-24T13:53:49.155Z,14.70
2022-11-24T13:56:15.913Z,14.80
2022-11-24T13:58:49.005Z,14.80
2022-11-24T14:01:30.132Z,14.80
2022-11-24T14:07:09.510Z,14.80
2022-11-24T14:09:47.093Z,14.80
2022-11-24T14:12:16.900Z,14.70
2022-11-24T14:14:46.246Z,14.70
2022-11-24T14:17:22.296Z,14.70
2022-11-24T14:19:54.678Z,14.70
2022-11-24T14:22:44.067Z,14.70
2022-11-24T14:25:27.872Z,14.70
2022-11-24T14:27:54.765Z,14.70
2022-11-24T14:30:24.251Z,14.60
2022-11-24T14:32:59.122Z,14.60
2022-11-24T14:35:31.899Z,14.60
2022-11-24T14:38:01.626Z,14.50
2022-11-24T14:40:48.763Z,14.60
2022-11-24T14:43:24.171Z,14.50
2022-11-24T14:46:09.814Z,14.50
2022-11-24T14:48:38.685Z,14.40
2022-11-24T14:51:10.831Z,14.30
2022-11-24T14:53:42.555Z,14.30
2022-11-24T14:56:37.308Z,14.10
2022-11-24T14:59:20.774Z,14.00
2022-11-24T15:01:47.759Z,13.90
2022-11-24T15:04:46.385Z,13.80
2022-11-24T15:07:25.969Z,13.70
2022-11-24T15:10:01.399Z,13.70
2022-11-24T15:12:39.409Z,13.70
2022-11-24T15:15:30.699Z,13.60
2022-11-24T15:17:59.201Z,13.60
2022-11-24T15:20:46.210Z,13.50
2022-11-24T15:23:26.181Z,13.50
2022-11-24T15:25:56.820Z,13.50
2022-11-24T15:28:27.543Z,13.40
2022-11-24T15:31:02.242Z,13.40
2022-11-24T15:33:29.594Z,13.40
2022-11-24T15:35:56.642Z,13.30
2022-11-24T15:38:23.962Z,13.30
2022-11-24T15:40:53.095Z,13.20
2022-11-24T15:43:34.953Z,13.10
2022-11-24T15:46:03.068Z,13.00
2022-11-24T15:48:30.630Z,13.00
2022-11-24T15:50:59.247Z,12.90
2022-11-24T15:53:32.760Z,12.90
2022-11-24T15:56:01.582Z,12.80
2022-11-24T15:58:28.547Z,12.80
2022-11-24T16:00:55.495Z,12.70
2022-11-24T16:06:22.012Z,12.60
2022-11-24T16:08:50.544Z,12.60
2022-11-24T16:11:17.413Z,12.60
2022-11-24T16:13:48.569Z,12.60
2022-11-24T16:16:19.952Z,12.60
2022-11-24T16:18:46.847Z,12.60
2022-11-24T16:21:13.701Z,12.60
2022-11-24T16:23:40.541Z,12.50
2022-11-24T16:26:07.487Z,12.50
2022-11-24T16:28:34.530Z,12.50
2022-11-24T16:31:01.647Z,12.50
2022-11-24T16:33:29.863Z,12.40
2022-11-24T16:35:56.777Z,12.40
2022-11-24T16:38:23.977Z,12.40
2022-11-24T16:40:52.532Z,12.40
2022-11-24T16:43:19.747Z,12.40
2022-11-24T16:45:46.813Z,12.40
2022-11-24T16:48:13.781Z,12.40
2022-11-24T16:50:40.688Z,12.50
2022-11-24T16:53:07.688Z,12.50
2022-11-24T16:55:34.588Z,12.50
2022-11-24T16:58:03.981Z,12.50
2022-11-24T17:00:30.958Z,12.60
2022-11-24T17:02:57.873Z,12.60
2022-11-24T17:05:25.588Z,12.60
2022-11-24T17:07:52.582Z,12.60
2022-11-24T17:10:19.700Z,12.60
2022-11-24T17:12:46.573Z,12.50
2022-11-24T17:20:47.180Z,12.50
2022-11-24T17:23:14.104Z,12.40
2022-11-24T17:25:41.071Z,12.40
2022-11-24T17:28:07.864Z,12.40
2022-11-24T17:30:36.995Z,12.40
2022-11-24T17:33:03.852Z,12.50
2022-11-24T17:35:30.742Z,12.40
2022-11-24T17:37:58.180Z,12.50
2022-11-24T17:40:29.266Z,12.50
2022-11-24T17:43:00.447Z,12.50
2022-11-24T17:45:29.411Z,12.50
2022-11-24T17:47:58.958Z,12.50
2022-11-24T17:50:26.619Z,12.50
2022-11-24T17:52:54.091Z,12.40
2022-11-24T17:55:21.259Z,12.50
2022-11-24T17:57:48.116Z,12.40
2022-11-24T18:00:15.454Z,12.50
2022-11-24T18:02:42.332Z,12.50
2022-11-24T18:05:09.462Z,12.50
2022-11-24T18:07:39.344Z,12.50
2022-11-24T18:10:06.713Z,12.50
2022-11-24T18:12:33.640Z,12.50
2022-11-24T18:15:00.590Z,12.40
2022-11-24T18:17:29.034Z,12.40
2022-11-24T18:19:55.987Z,12.40
2022-11-24T18:22:43.012Z,12.40
2022-11-24T18:25:10.016Z,12.30
2022-11-24T18:27:36.874Z,12.30
2022-11-24T18:30:05.056Z,12.30
2022-11-24T18:32:32.684Z,12.20
2022-11-24T18:34:59.563Z,12.20
2022-11-24T18:37:26.462Z,12.20
2022-11-24T18:39:53.334Z,12.20
2022-11-24T18:42:20.971Z,12.20
2022-11-24T18:44:52.592Z,12.10
2022-11-24T18:47:20.893Z,12.10
2022-11-24T18:49:47.733Z,12.10
2022-11-24T18:52:14.761Z,12.10
2022-11-24T18:54:41.802Z,12.10
2022-11-24T18:57:08.733Z,12.00
2022-11-24T18:59:36.782Z,12.00
2022-11-24T19:02:03.689Z,12.00
2022-11-24T19:04:30.545Z,11.90
2022-11-24T19:06:57.396Z,11.90
2022-11-24T19:09:25.500Z,11.90
2022-11-24T19:11:52.401Z,11.90
2022-11-24T19:14:19.807Z,11.90
2022-11-24T19:16:50.335Z,11.90
2022-11-24T19:19:17.478Z,11.90
2022-11-24T19:21:44.614Z,11.90
2022-11-24T19:24:13.221Z,11.90
2022-11-24T19:26:40.520Z,11.80
2022-11-24T19:29:08.293Z,11.80
2022-11-24T19:31:35.930Z,11.80
2022-11-24T19:34:03.645Z,11.80
2022-11-24T19:36:31.201Z,11.80
2022-11-24T19:38:58.943Z,11.80
2022-11-24T19:41:28.454Z,11.80
2022-11-24T19:43:56.665Z,11.80
2022-11-24T19:46:27.935Z,11.70
2022-11-24T19:48:57.171Z,11.70
2022-11-24T19:51:30.778Z,11.70
2022-11-24T19:53:58.560Z,11.70
2022-11-24T19:56:28.034Z,11.80
2022-11-24T19:58:55.938Z,11.80
2022-11-24T20:01:25.047Z,11.80
2022-11-24T20:04:12.408Z,11.70
2022-11-24T20:06:42.696Z,11.70
2022-11-24T20:09:11.714Z,11.80
2022-11-24T20:11:39.535Z,11.70
2022-11-24T20:14:07.846Z,11.70
2022-11-24T20:16:35.340Z,11.70
2022-11-24T20:19:07.463Z,11.80
2022-11-24T20:21:36.248Z,11.80
2022-11-24T20:24:10.001Z,11.80
2022-11-24T20:26:39.808Z,11.80
2022-11-24T20:29:06.983Z,11.80
2022-11-24T20:31:53.904Z,11.80
2022-11-24T20:34:22.088Z,11.80
2022-11-24T20:36:49.433Z,11.90
2022-11-24T20:39:20.113Z,11.90
2022-11-24T20:41:47.317Z,11.90
2022-11-24T20:44:16.814Z,12.00
2022-11-24T20:46:45.834Z,12.00
2022-11-24T20:49:16.481Z,12.00
2022-11-24T20:51:46.945Z,12.00
2022-11-24T20:54:19.237Z,12.00
2022-11-24T20:56:46.824Z,12.00
2022-11-24T20:59:22.074Z,12.00
2022-11-24T21:01:50.352Z,12.00
2022-11-24T21:04:21.437Z,12.00
2022-11-24T21:06:49.002Z,12.00
2022-11-24T21:09:15.972Z,12.10
2022-11-24T21:11:43.002Z,12.10
2022-11-24T21:14:10.348Z,12.10
2022-11-24T21:16:39.265Z,12.10
2022-11-24T21:19:12.275Z,12.10
2022-11-24T21:21:42.437Z,12.10
2022-11-24T21:24:14.884Z,12.20
2022-11-24T21:26:42.707Z,12.10
2022-11-24T21:29:12.389Z,12.10
2022-11-24T21:31:39.400Z,12.10
2022-11-24T21:34:08.029Z,12.10
2022-11-24T21:36:35.849Z,12.20
2022-11-24T21:39:03.974Z,12.10
2022-11-24T21:41:33.199Z,12.20
2022-11-24T21:44:00.201Z,12.10
2022-11-24T21:46:29.389Z,12.20
2022-11-24T21:48:56.221Z,12.10
2022-11-24T21:51:23.352Z,12.20
2022-11-24T21:53:50.304Z,12.20
2022-11-24T21:56:19.970Z,12.20
2022-11-24T21:58:51.495Z,12.20
2022-11-24T22:01:19.970Z,12.30
2022-11-24T22:03:47.180Z,12.30
2022-11-24T22:06:14.479Z,12.30
2022-11-24T22:08:41.341Z,12.30
2022-11-24T22:11:12.500Z,12.40
2022-11-24T22:13:39.814Z,12.40
2022-11-24T22:16:08.875Z,12.40
2022-11-24T22:18:38.420Z,12.40
2022-11-24T22:21:07.114Z,12.40
2022-11-24T22:23:35.329Z,12.50
2022-11-24T22:26:04.257Z,12.50
2022-11-24T22:28:33.251Z,12.50
2022-11-24T22:31:07.289Z,12.50
2022-11-24T22:33:34.492Z,12.60
2022-11-24T22:36:02.473Z,12.60
2022-11-24T22:38:30.996Z,12.60
2022-11-24T22:41:09.794Z,12.60
2022-11-24T22:43:38.607Z,12.60
2022-11-24T22:46:13.941Z,12.70
2022-11-24T22:48:41.688Z,12.70
2022-11-24T22:51:11.389Z,12.70
2022-11-24T22:53:38.813Z,12.70
2022-11-24T22:56:12.177Z,12.70
2022-11-24T22:58:39.925Z,12.70
2022-11-24T23:01:16.173Z,12.70
2022-11-24T23:03:43.612Z,12.80
2022-11-24T23:06:20.488Z,12.80
2022-11-24T23:08:47.554Z,12.80
2022-11-24T23:11:20.437Z,12.90
2022-11-24T23:13:47.572Z,12.90
2022-11-24T23:16:16.849Z,12.90
2022-11-24T23:18:48.783Z,12.90
2022-11-24T23:21:21.310Z,12.90
2022-11-24T23:23:49.039Z,12.90
2022-11-24T23:26:18.565Z,12.90
2022-11-24T23:28:45.487Z,12.90
2022-11-24T23:31:14.828Z,12.90
2022-11-24T23:33:42.441Z,12.90
2022-11-24T23:36:14.771Z,12.90
2022-11-24T23:38:42.385Z,12.80
2022-11-24T23:41:12.059Z,12.80
2022-11-24T23:43:40.322Z,12.80
2022-11-24T23:46:11.744Z,12.80
2022-11-24T23:48:39.663Z,12.70
2022-11-24T23:51:07.341Z,12.70
2022-11-24T23:53:35.316Z,12.60
2022-11-24T23:56:02.765Z,12.60
2022-11-24T23:58:29.946Z,12.60
